createdAt,value
2022-10-31T00:01:17.686Z,14.33
2022-10-31T00:03:45.338Z,14.10
2022-10-31T00:06:12.689Z,13.73
2022-10-31T00:08:40.171Z,13.81
2022-10-31T00:11:11.312Z,13.75
2022-10-31T00:13:38.674Z,13.77
2022-10-31T00:16:13.532Z,13.79
2022-10-31T00:18:41.136Z,13.80
2022-10-31T00:21:08.498Z,14.08
2022-10-31T00:23:35.849Z,13.48
2022-10-31T00:26:04.325Z,13.85
2022-10-31T00:28:33.095Z,13.63
2022-10-31T00:31:05.670Z,13.84
2022-10-31T00:33:35.259Z,13.49
2022-10-31T00:36:02.639Z,13.88
2022-10-31T00:38:29.994Z,13.74
2022-10-31T00:40:57.623Z,13.59
2022-10-31T00:43:24.969Z,13.57
2022-10-31T00:45:52.309Z,13.68
2022-10-31T00:48:19.888Z,13.20
2022-10-31T00:50:49.927Z,13.50
2022-10-31T00:53:17.360Z,13.87
2022-10-31T00:55:45.057Z,14.31
2022-10-31T01:00:56.774Z,13.90
2022-10-31T01:03:29.803Z,13.81
2022-10-31T01:06:06.084Z,13.71
2022-10-31T01:08:34.171Z,13.83
2022-10-31T01:11:23.146Z,13.72
2022-10-31T01:13:52.868Z,13.14
2022-10-31T06:05:14.602Z,13.07
2022-10-31T06:07:43.708Z,13.54
2022-10-31T06:10:12.199Z,12.99
2022-10-31T06:12:41.579Z,12.88
2022-10-31T06:15:10.061Z,13.14
2022-10-31T06:17:37.417Z,12.46
2022-10-31T06:20:07.511Z,13.20
2022-10-31T06:22:37.557Z,13.03
2022-10-31T06:25:06.444Z,13.32
2022-10-31T06:27:34.547Z,12.96
2022-10-31T06:30:04.662Z,12.77
2022-10-31T06:32:32.111Z,12.55
2022-10-31T06:34:59.472Z,13.06
2022-10-31T06:37:27.097Z,13.11
2022-10-31T06:39:58.438Z,13.12
2022-10-31T06:42:26.297Z,12.68
2022-10-31T06:44:54.015Z,13.11
2022-10-31T06:47:23.870Z,13.01
2022-10-31T06:49:51.454Z,13.30
2022-10-31T06:52:21.290Z,13.00
2022-10-31T06:54:48.750Z,12.65
2022-10-31T06:57:16.106Z,12.70
2022-10-31T06:59:43.754Z,12.68
2022-10-31T07:02:12.036Z,13.35
2022-10-31T07:04:39.742Z,12.98
2022-10-31T07:07:08.107Z,13.24
2022-10-31T07:09:35.726Z,13.44
2022-10-31T07:12:03.338Z,13.33
2022-10-31T07:14:31.097Z,13.46
2022-10-31T07:16:58.509Z,13.22
2022-10-31T07:19:26.030Z,13.08
2022-10-31T07:21:53.635Z,13.23
2022-10-31T07:24:20.988Z,13.14
2022-10-31T07:26:50.846Z,12.99
2022-10-31T07:29:18.523Z,12.79
2022-10-31T07:31:47.189Z,13.15
2022-10-31T07:34:14.849Z,13.45
2022-10-31T07:36:44.184Z,13.10
2022-10-31T07:39:13.369Z,13.26
2022-10-31T07:41:40.733Z,13.27
2022-10-31T07:44:09.994Z,13.18
2022-10-31T07:46:46.368Z,13.65
2022-10-31T07:49:20.262Z,13.06
2022-10-31T07:51:51.348Z,13.50
2022-10-31T07:54:20.352Z,12.47
2022-10-31T07:56:48.473Z,13.40
2022-10-31T07:59:15.886Z,13.27
2022-10-31T08:01:43.502Z,13.43
2022-10-31T08:04:12.384Z,13.53
2022-10-31T08:06:43.487Z,13.50
2022-10-31T08:09:11.293Z,13.59
2022-10-31T08:11:39.697Z,13.61
2022-10-31T08:14:07.655Z,13.52
2022-10-31T08:16:35.338Z,13.85
2022-10-31T08:19:03.126Z,13.79
2022-10-31T08:21:30.673Z,13.97
2022-10-31T08:23:58.675Z,14.15
2022-10-31T08:26:26.572Z,14.33
2022-10-31T08:28:55.607Z,14.46
2022-10-31T08:31:24.384Z,14.00
2022-10-31T08:33:59.253Z,14.12
2022-10-31T08:36:32.157Z,14.24
2022-10-31T08:39:02.178Z,14.04
2022-10-31T08:41:30.127Z,13.80
2022-10-31T08:43:57.770Z,14.49
2022-10-31T08:46:25.352Z,13.88
2022-10-31T08:48:52.711Z,14.06
2022-10-31T08:51:20.095Z,14.12
2022-10-31T08:53:48.985Z,14.14
2022-10-31T08:56:18.208Z,14.20
2022-10-31T08:58:46.520Z,14.16
2022-10-31T09:01:14.854Z,13.87
2022-10-31T09:03:43.542Z,13.61
2022-10-31T09:06:11.686Z,13.97
2022-10-31T09:08:39.334Z,13.08
2022-10-31T09:11:07.709Z,13.60
2022-10-31T09:13:41.195Z,14.03
2022-10-31T09:16:10.255Z,13.69
2022-10-31T09:18:37.719Z,13.50
2022-10-31T09:21:05.148Z,13.20
2022-10-31T09:23:32.999Z,13.52
2022-10-31T09:26:02.200Z,13.48
2022-10-31T09:28:29.666Z,13.36
2022-10-31T09:30:59.636Z,12.83
2022-10-31T09:33:34.647Z,13.73
2022-10-31T09:36:03.343Z,14.05
2022-10-31T09:38:31.560Z,13.98
2022-10-31T09:41:15.337Z,14.08
2022-10-31T09:43:58.659Z,13.79
2022-10-31T09:46:36.927Z,13.72
2022-10-31T09:49:31.577Z,14.23
2022-10-31T09:52:05.820Z,13.90
2022-10-31T09:54:42.112Z,13.56
2022-10-31T09:57:14.467Z,13.96
2022-10-31T09:59:44.532Z,13.49
2022-10-31T10:02:18.997Z,13.96
2022-10-31T10:04:52.766Z,13.32
2022-10-31T10:07:40.481Z,14.12
2022-10-31T10:10:50.391Z,13.71
2022-10-31T10:13:34.086Z,13.88
2022-10-31T10:16:05.072Z,13.82
2022-10-31T10:18:40.100Z,14.16
2022-10-31T10:21:35.218Z,14.25
2022-10-31T10:24:10.704Z,14.15
2022-10-31T10:26:41.585Z,13.29
2022-10-31T10:29:47.448Z,13.51
2022-10-31T10:32:26.837Z,13.49
2022-10-31T10:35:24.485Z,14.26
2022-10-31T10:37:57.807Z,13.27
2022-10-31T10:40:27.240Z,13.72
2022-10-31T10:43:18.328Z,13.59
2022-10-31T10:46:11.865Z,14.08
2022-10-31T10:48:51.653Z,13.78
2022-10-31T10:51:51.960Z,14.12
2022-10-31T10:54:37.590Z,13.76
2022-10-31T10:57:18.784Z,13.87
2022-10-31T10:59:47.184Z,13.93
2022-10-31T11:02:26.135Z,13.83
2022-10-31T11:04:56.195Z,13.58
2022-10-31T11:07:23.637Z,14.00
2022-10-31T11:09:51.043Z,13.99
2022-10-31T11:12:22.776Z,14.11
2022-10-31T11:15:00.264Z,13.89
2022-10-31T11:17:31.869Z,13.82
2022-10-31T11:20:02.349Z,13.53
2022-10-31T11:22:30.080Z,14.18
2022-10-31T11:24:57.511Z,14.22
2022-10-31T11:27:26.319Z,13.70
2022-10-31T11:29:59.700Z,13.72
2022-10-31T11:32:28.446Z,14.30
2022-10-31T11:34:59.536Z,13.99
2022-10-31T11:37:36.872Z,14.03
2022-10-31T11:40:06.852Z,13.98
2022-10-31T11:42:40.320Z,13.95
2022-10-31T11:45:20.313Z,14.07
2022-10-31T11:47:52.972Z,13.72
2022-10-31T11:50:35.327Z,14.19
2022-10-31T11:53:03.437Z,13.60
2022-10-31T11:55:37.225Z,13.57
2022-10-31T11:58:05.805Z,13.24
2022-10-31T12:00:41.848Z,13.83
2022-10-31T12:03:33.370Z,13.42
2022-10-31T12:06:08.681Z,13.61
2022-10-31T12:08:37.604Z,14.06
2022-10-31T12:11:12.404Z,14.48
2022-10-31T12:14:11.094Z,14.72
2022-10-31T12:16:44.137Z,14.40
2022-10-31T12:19:36.871Z,14.11
2022-10-31T12:22:15.191Z,14.15
2022-10-31T12:24:55.499Z,13.83
2022-10-31T12:27:50.705Z,13.89
2022-10-31T12:30:24.079Z,13.64
2022-10-31T12:33:15.683Z,14.05
2022-10-31T12:36:22.425Z,13.63
2022-10-31T12:38:59.402Z,13.48
2022-10-31T12:51:01.950Z,13.06
2022-10-31T12:54:07.066Z,12.75
2022-10-31T12:56:47.116Z,13.22
2022-10-31T12:59:25.610Z,13.48
2022-10-31T13:02:00.874Z,12.85
2022-10-31T13:04:36.535Z,13.40
2022-10-31T13:07:09.969Z,13.45
2022-10-31T13:09:46.504Z,13.70
2022-10-31T13:12:17.571Z,13.34
2022-10-31T13:14:48.516Z,13.46
2022-10-31T13:17:35.860Z,12.92
2022-10-31T13:20:31.624Z,12.96
2022-10-31T13:23:29.675Z,12.97
2022-10-31T13:26:03.091Z,13.43
2022-10-31T13:28:36.778Z,13.81
2022-10-31T13:31:04.531Z,13.42
2022-10-31T13:33:36.105Z,13.41
2022-10-31T13:36:16.133Z,13.50
2022-10-31T13:38:55.943Z,13.58
2022-10-31T13:41:35.444Z,13.32
2022-10-31T13:44:16.226Z,13.71
2022-10-31T13:46:44.587Z,13.55
2022-10-31T13:49:41.278Z,13.77
2022-10-31T13:52:12.099Z,13.62
2022-10-31T13:54:43.745Z,13.16
2022-10-31T13:57:38.340Z,13.03
2022-10-31T14:00:20.945Z,13.67
2022-10-31T14:02:55.261Z,13.67
2022-10-31T14:05:31.796Z,13.38
2022-10-31T14:08:02.655Z,13.43
2022-10-31T14:10:33.852Z,13.30
2022-10-31T14:13:23.466Z,13.42
2022-10-31T14:15:57.884Z,13.40
2022-10-31T14:18:29.408Z,13.45
2022-10-31T14:20:56.725Z,13.88
2022-10-31T14:23:41.416Z,13.74
2022-10-31T14:26:25.739Z,13.56
2022-10-31T14:28:55.203Z,13.41
2022-10-31T14:31:32.964Z,13.33
2022-10-31T14:34:02.146Z,13.72
2022-10-31T14:36:56.553Z,13.57
2022-10-31T14:39:43.058Z,13.05
2022-10-31T14:42:46.121Z,13.42
2022-10-31T14:45:44.770Z,13.38
2022-10-31T14:48:36.782Z,13.24
2022-10-31T14:51:26.329Z,13.56
2022-10-31T14:53:56.426Z,13.57
2022-10-31T14:56:31.788Z,13.59
2022-10-31T14:59:03.203Z,13.45
2022-10-31T15:01:37.784Z,13.05
2022-10-31T15:04:23.575Z,13.80
2022-10-31T15:07:31.376Z,13.13
2022-10-31T15:10:05.296Z,13.01
2022-10-31T15:12:35.774Z,13.41
2022-10-31T15:15:22.587Z,12.89
2022-10-31T15:17:56.346Z,12.69
2022-10-31T15:20:27.847Z,12.59
2022-10-31T15:22:57.372Z,12.59
2022-10-31T15:25:27.201Z,12.74
2022-10-31T15:27:54.521Z,12.82
2022-10-31T15:30:24.178Z,13.18
2022-10-31T15:32:58.214Z,12.86
2022-10-31T15:35:28.648Z,13.05
2022-10-31T15:37:58.272Z,12.36
2022-10-31T15:40:27.095Z,13.01
2022-10-31T15:42:59.891Z,13.19
2022-10-31T15:45:29.086Z,13.22
2022-10-31T15:48:14.529Z,13.33
2022-10-31T15:50:51.578Z,13.21
2022-10-31T15:53:22.525Z,12.80
2022-10-31T15:55:53.222Z,12.64
2022-10-31T15:58:20.989Z,13.02
2022-10-31T16:00:59.267Z,12.83
2022-10-31T16:03:32.868Z,12.77
2022-10-31T16:06:02.920Z,12.72
2022-10-31T16:08:30.397Z,12.15
2022-10-31T16:11:04.101Z,12.32
2022-10-31T16:13:34.360Z,12.37
2022-10-31T16:19:02.242Z,12.51
2022-10-31T16:21:32.561Z,12.60
2022-10-31T16:24:19.047Z,12.46
2022-10-31T16:26:55.041Z,12.57
2022-10-31T16:29:29.976Z,13.08
2022-10-31T16:31:57.577Z,12.88
2022-10-31T16:34:26.862Z,12.73
2022-10-31T16:36:54.650Z,12.56
2022-10-31T16:39:22.431Z,12.81
2022-10-31T16:41:52.138Z,12.50
2022-10-31T16:44:24.561Z,12.67
2022-10-31T16:47:23.429Z,12.25
2022-10-31T16:49:53.505Z,12.26
2022-10-31T16:52:21.963Z,12.72
2022-10-31T16:54:49.723Z,12.61
2022-10-31T16:57:19.352Z,12.72
2022-10-31T16:59:49.661Z,12.14
2022-10-31T17:02:17.689Z,12.70
2022-10-31T17:04:45.069Z,12.46
2022-10-31T17:07:12.653Z,12.57
2022-10-31T17:09:40.065Z,12.34
2022-10-31T17:12:08.242Z,12.27
2022-10-31T17:14:36.789Z,11.77
2022-10-31T17:17:04.133Z,11.57
2022-10-31T17:19:31.533Z,12.01
2022-10-31T17:21:59.266Z,11.78
2022-10-31T17:24:26.611Z,11.83
2022-10-31T17:26:54.265Z,11.98
2022-10-31T17:29:21.977Z,11.78
2022-10-31T17:31:49.491Z,11.75
2022-10-31T17:34:19.525Z,11.73
2022-10-31T17:36:53.525Z,12.34
2022-10-31T17:39:21.217Z,12.14
2022-10-31T17:41:52.742Z,11.96
2022-10-31T17:44:20.174Z,12.01
2022-10-31T17:46:47.560Z,12.25
2022-10-31T17:49:15.197Z,12.58
2022-10-31T17:51:42.577Z,12.16
2022-10-31T17:54:11.148Z,12.25
2022-10-31T17:56:39.446Z,12.06
2022-10-31T18:01:39.661Z,12.18
2022-10-31T18:04:07.430Z,12.04
2022-10-31T18:06:35.190Z,12.26
2022-10-31T18:09:04.363Z,12.49
2022-10-31T18:11:32.549Z,12.17
2022-10-31T18:14:00.517Z,12.33
2022-10-31T18:16:27.968Z,12.30
2022-10-31T18:19:02.163Z,12.18
2022-10-31T18:21:31.131Z,12.30
2022-10-31T18:24:00.270Z,12.05
2022-10-31T18:26:29.138Z,11.97
2022-10-31T18:28:57.077Z,11.99
2022-10-31T18:31:25.043Z,12.18
2022-10-31T18:33:54.650Z,12.05
2022-10-31T18:36:22.840Z,11.68
2022-10-31T18:38:50.984Z,11.99
2022-10-31T18:41:19.335Z,12.24
2022-10-31T18:43:46.852Z,12.37
2022-10-31T18:46:16.876Z,12.40
2022-10-31T18:48:44.742Z,12.13
2022-10-31T18:51:14.436Z,12.22
2022-10-31T18:53:42.478Z,11.86
2022-10-31T18:56:11.014Z,12.09
2022-10-31T18:58:38.397Z,11.93
2022-10-31T19:01:08.821Z,11.93
2022-10-31T19:03:37.753Z,11.68
2022-10-31T19:06:07.313Z,11.55
2022-10-31T19:08:36.553Z,12.13
2022-10-31T19:11:12.143Z,12.28
2022-10-31T19:13:41.535Z,11.77
2022-10-31T19:16:24.130Z,12.07
2022-10-31T19:18:55.046Z,12.39
2022-10-31T19:21:23.639Z,12.63
2022-10-31T19:23:52.685Z,12.64
2022-10-31T19:26:21.046Z,12.42
2022-10-31T19:28:48.661Z,12.17
2022-10-31T19:31:16.368Z,12.59
2022-10-31T19:33:44.163Z,12.48
2022-10-31T19:36:14.204Z,12.16
2022-10-31T19:38:44.060Z,12.01
2022-10-31T19:41:17.886Z,11.91
2022-10-31T19:43:45.810Z,12.15
2022-10-31T19:46:27.680Z,12.24
2022-10-31T19:49:04.767Z,12.10
2022-10-31T19:51:32.839Z,11.87
2022-10-31T19:54:00.380Z,12.28
2022-10-31T19:56:27.897Z,12.06
2022-10-31T19:58:57.331Z,11.92
2022-10-31T20:01:25.144Z,12.13
2022-10-31T20:03:53.038Z,11.77
2022-10-31T20:06:31.979Z,11.99
2022-10-31T20:09:02.708Z,12.11
2022-10-31T20:11:30.214Z,11.93
2022-10-31T20:13:58.678Z,11.76
2022-10-31T20:16:27.801Z,11.50
2022-10-31T20:18:56.556Z,11.60
2022-10-31T20:21:26.779Z,12.08
2022-10-31T20:23:59.431Z,12.03
2022-10-31T20:26:28.235Z,12.31
2022-10-31T20:28:57.313Z,12.08
2022-10-31T20:31:27.288Z,11.82
2022-10-31T20:33:55.848Z,11.71
2022-10-31T20:36:24.311Z,11.60
2022-10-31T20:38:52.779Z,11.63
2022-10-31T20:41:21.228Z,11.86
2022-10-31T20:43:49.460Z,12.00
2022-10-31T20:46:20.504Z,12.28
2022-10-31T20:48:48.483Z,12.40
2022-10-31T20:51:21.589Z,11.53
2022-10-31T20:53:50.318Z,12.02
2022-10-31T20:56:19.778Z,11.28
2022-10-31T20:58:47.433Z,11.69
2022-10-31T21:01:20.333Z,11.47
2022-10-31T21:03:48.779Z,11.27
2022-10-31T21:06:17.060Z,11.79
2022-10-31T21:08:45.086Z,11.43
2022-10-31T21:11:16.580Z,11.87
2022-10-31T21:13:45.916Z,12.31
2022-10-31T21:16:19.617Z,12.31
2022-10-31T21:18:49.562Z,12.52
2022-10-31T21:21:27.564Z,12.64
2022-10-31T21:24:07.949Z,12.60
2022-10-31T21:26:38.555Z,12.75
2022-10-31T21:29:06.837Z,12.77
2022-10-31T21:31:35.634Z,12.07
2022-10-31T21:34:03.885Z,12.14
2022-10-31T21:36:31.558Z,12.27
2022-10-31T21:38:58.853Z,12.77
2022-10-31T21:41:26.831Z,13.05
2022-10-31T21:43:55.133Z,12.44
2022-10-31T21:46:27.524Z,12.49
2022-10-31T21:48:55.710Z,12.38
2022-10-31T21:51:25.676Z,12.16
2022-10-31T21:54:11.889Z,12.42
2022-10-31T21:56:40.034Z,12.02
2022-10-31T21:59:07.536Z,12.04
2022-10-31T22:01:35.837Z,12.50
2022-10-31T22:04:03.912Z,12.57
2022-10-31T22:06:31.610Z,12.25
2022-10-31T22:09:00.256Z,12.35
2022-10-31T22:11:28.549Z,11.68
2022-10-31T22:13:56.904Z,11.77
2022-10-31T22:16:25.056Z,12.01
2022-10-31T22:18:54.543Z,12.22
2022-10-31T22:21:24.209Z,12.20
2022-10-31T22:23:55.854Z,11.96
2022-10-31T22:26:23.837Z,11.88
2022-10-31T22:28:56.206Z,12.04
2022-10-31T22:31:24.377Z,12.14
2022-10-31T22:33:52.037Z,12.08
2022-10-31T22:36:22.402Z,12.06
2022-10-31T22:38:50.696Z,12.37
2022-10-31T22:41:20.489Z,12.27
2022-10-31T22:43:48.258Z,12.23
2022-10-31T22:46:23.922Z,12.23
2022-10-31T22:48:55.143Z,12.08
2022-10-31T22:51:28.316Z,12.40
2022-10-31T22:53:59.109Z,11.56
2022-10-31T22:56:28.714Z,11.74
2022-10-31T22:58:56.084Z,11.60
2022-10-31T23:01:26.838Z,11.40
2022-10-31T23:03:54.555Z,11.54
2022-10-31T23:06:24.284Z,11.65
2022-10-31T23:08:52.491Z,11.77
2022-10-31T23:11:24.788Z,11.39
2022-10-31T23:14:23.899Z,11.76
2022-10-31T23:16:53.774Z,11.77
2022-10-31T23:19:27.404Z,11.75
2022-10-31T23:22:01.876Z,11.77
2022-10-31T23:24:55.758Z,11.95
2022-10-31T23:27:24.471Z,11.92
2022-10-31T23:29:53.983Z,11.82
2022-10-31T23:32:25.839Z,12.00
2022-10-31T23:35:12.372Z,12.32
2022-10-31T23:37:39.905Z,11.99
2022-10-31T23:40:11.063Z,12.45
2022-10-31T23:42:38.449Z,11.53
2022-10-31T23:45:06.094Z,11.72
2022-10-31T23:47:33.694Z,11.83
2022-10-31T23:50:01.048Z,11.69
2022-10-31T23:52:28.399Z,11.47
2022-10-31T23:54:56.387Z,11.74
2022-10-31T23:57:23.758Z,11.69
2022-10-31T23:59:51.119Z,11.93
